createdAt,value
2017-09-25T00:01:13.725Z,8.90
2017-09-25T00:03:41.184Z,8.80
2017-09-25T00:06:08.680Z,8.70
2017-09-25T00:08:36.172Z,8.80
2017-09-25T00:11:04.412Z,8.80
2017-09-25T00:13:31.907Z,8.80
2017-09-25T06:10:00.913Z,6.30
2017-09-25T06:12:28.383Z,6.40
2017-09-25T06:14:55.871Z,6.40
2017-09-25T06:17:23.370Z,6.50
2017-09-25T06:19:50.880Z,6.50
2017-09-25T06:22:18.347Z,6.60
2017-09-25T06:24:45.852Z,6.70
2017-09-25T06:27:13.348Z,6.70
2017-09-25T06:29:40.836Z,6.80
2017-09-25T06:32:08.295Z,6.90
2017-09-25T06:34:35.769Z,6.90
2017-09-25T06:37:04.030Z,6.70
2017-09-25T06:39:31.500Z,6.70
2017-09-25T06:41:59.775Z,8.40
2017-09-25T06:44:28.036Z,8.70
2017-09-25T06:46:55.547Z,8.70
2017-09-25T06:49:23.059Z,8.90
2017-09-25T06:51:51.336Z,9.30
2017-09-25T06:54:18.827Z,9.30
2017-09-25T06:56:46.332Z,9.50
2017-09-25T06:59:13.819Z,9.40
2017-09-25T07:01:42.107Z,9.10
2017-09-25T07:04:10.402Z,9.40
2017-09-25T07:06:37.909Z,9.30
2017-09-25T07:09:05.482Z,9.60
2017-09-25T07:11:32.987Z,9.80
2017-09-25T07:14:00.492Z,9.50
2017-09-25T07:16:28.008Z,9.70
2017-09-25T07:18:55.528Z,9.90
2017-09-25T07:21:23.816Z,10.00
2017-09-25T07:23:51.354Z,10.00
2017-09-25T07:26:18.847Z,9.60
2017-09-25T07:28:46.364Z,9.40
2017-09-25T07:31:13.837Z,9.50
2017-09-25T07:33:42.123Z,9.60
2017-09-25T07:36:10.401Z,9.70
2017-09-25T07:38:38.635Z,9.70
2017-09-25T07:41:06.115Z,9.70
2017-09-25T07:43:33.625Z,9.80
2017-09-25T07:46:01.145Z,9.80
2017-09-25T07:48:29.435Z,9.80
2017-09-25T07:50:57.722Z,10.00
2017-09-25T07:53:25.211Z,10.00
2017-09-25T07:55:52.709Z,10.30
2017-09-25T07:58:20.208Z,10.30
2017-09-25T08:00:47.695Z,10.50
2017-09-25T08:03:15.245Z,10.40
2017-09-25T08:05:42.742Z,10.20
2017-09-25T08:08:10.229Z,10.50
2017-09-25T08:10:37.750Z,10.80
2017-09-25T08:13:05.266Z,11.20
2017-09-25T08:15:32.780Z,11.50
2017-09-25T08:18:00.260Z,11.70
2017-09-25T08:20:28.535Z,12.00
2017-09-25T08:22:56.819Z,12.00
2017-09-25T08:25:25.088Z,12.10
2017-09-25T08:27:53.349Z,12.20
2017-09-25T08:30:20.860Z,12.20
2017-09-25T08:32:48.354Z,12.30
2017-09-25T08:35:15.837Z,12.40
2017-09-25T08:37:44.076Z,12.80
2017-09-25T08:40:11.601Z,12.80
2017-09-25T08:42:39.080Z,12.60
2017-09-25T08:45:06.612Z,12.80
2017-09-25T08:47:34.083Z,13.10
2017-09-25T08:50:02.211Z,13.30
2017-09-25T08:52:29.699Z,12.90
2017-09-25T08:54:57.210Z,13.10
2017-09-25T08:57:24.709Z,13.30
2017-09-25T08:59:52.958Z,13.60
2017-09-25T09:02:20.462Z,13.60
2017-09-25T09:04:47.961Z,13.30
2017-09-25T09:07:15.475Z,13.00
2017-09-25T09:09:42.972Z,13.50
2017-09-25T09:12:10.469Z,13.60
2017-09-25T09:14:38.711Z,13.90
2017-09-25T09:17:06.226Z,13.90
2017-09-25T09:19:33.727Z,14.20
2017-09-25T09:22:01.229Z,14.40
2017-09-25T09:24:29.510Z,13.90
2017-09-25T09:26:57.006Z,13.90
2017-09-25T09:29:24.505Z,14.20
2017-09-25T09:31:52.010Z,14.40
2017-09-25T09:34:19.519Z,14.60
2017-09-25T09:36:46.994Z,14.20
2017-09-25T09:39:15.282Z,14.80
2017-09-25T09:41:43.540Z,15.00
2017-09-25T09:44:11.015Z,15.00
2017-09-25T09:46:39.291Z,15.30
2017-09-25T09:49:07.536Z,15.10
2017-09-25T09:51:35.048Z,15.10
2017-09-25T09:54:02.544Z,15.20
2017-09-25T09:56:30.020Z,15.10
2017-09-25T09:58:57.550Z,15.30
2017-09-25T10:01:25.033Z,15.30
2017-09-25T10:03:52.569Z,15.50
2017-09-25T10:06:20.077Z,15.50
2017-09-25T10:08:48.358Z,15.70
2017-09-25T10:11:16.620Z,15.70
2017-09-25T10:13:44.128Z,15.70
2017-09-25T10:16:11.596Z,15.70
2017-09-25T10:18:39.107Z,15.80
2017-09-25T10:21:07.360Z,15.70
2017-09-25T10:23:34.883Z,15.70
2017-09-25T10:26:02.370Z,15.90
2017-09-25T10:28:29.825Z,15.90
2017-09-25T10:30:57.400Z,15.90
2017-09-25T10:33:24.855Z,15.90
2017-09-25T10:35:52.361Z,15.90
2017-09-25T10:38:19.838Z,15.90
2017-09-25T10:40:47.343Z,16.10
2017-09-25T10:43:14.855Z,16.00
2017-09-25T10:45:42.330Z,15.80
2017-09-25T10:48:09.817Z,15.70
2017-09-25T10:50:37.291Z,15.80
2017-09-25T10:53:05.519Z,16.10
2017-09-25T10:55:33.011Z,16.10
2017-09-25T10:58:01.256Z,16.30
2017-09-25T11:00:28.751Z,16.30
2017-09-25T11:02:57.019Z,16.20
2017-09-25T11:05:24.507Z,16.20
2017-09-25T11:07:51.991Z,16.30
2017-09-25T11:10:19.468Z,16.40
2017-09-25T11:12:46.967Z,16.20
2017-09-25T11:15:15.190Z,16.30
2017-09-25T11:17:42.690Z,16.20
2017-09-25T11:20:10.928Z,16.20
2017-09-25T11:22:38.420Z,16.60
2017-09-25T11:25:05.902Z,16.60
2017-09-25T11:27:34.159Z,16.50
2017-09-25T11:30:01.627Z,16.50
2017-09-25T11:32:29.907Z,16.80
2017-09-25T11:34:57.420Z,16.80
2017-09-25T11:37:24.904Z,16.80
2017-09-25T11:39:52.396Z,16.80
2017-09-25T11:42:19.896Z,16.80
2017-09-25T11:44:47.436Z,16.80
2017-09-25T11:47:14.922Z,17.00
2017-09-25T11:49:42.384Z,16.90
2017-09-25T11:52:09.911Z,17.10
2017-09-25T11:54:37.384Z,17.20
2017-09-25T11:57:04.872Z,17.10
2017-09-25T11:59:33.880Z,17.10
2017-09-25T12:02:01.390Z,17.10
2017-09-25T12:04:28.884Z,17.10
2017-09-25T12:06:56.388Z,16.70
2017-09-25T12:09:23.863Z,16.60
2017-09-25T12:11:51.327Z,16.80
2017-09-25T12:14:18.832Z,16.60
2017-09-25T12:16:46.313Z,16.80
2017-09-25T12:19:14.593Z,16.80
2017-09-25T12:21:42.080Z,16.90
2017-09-25T12:24:09.564Z,17.00
2017-09-25T12:26:37.067Z,17.20
2017-09-25T12:29:05.299Z,17.00
2017-09-25T12:31:32.795Z,17.00
2017-09-25T12:34:01.031Z,16.90
2017-09-25T12:36:28.491Z,16.90
2017-09-25T12:38:55.991Z,17.10
2017-09-25T12:41:24.261Z,17.20
2017-09-25T12:43:52.518Z,17.20
2017-09-25T12:46:19.983Z,17.10
2017-09-25T12:48:47.464Z,17.10
2017-09-25T12:51:14.938Z,17.50
2017-09-25T12:53:42.431Z,17.40
2017-09-25T12:56:09.919Z,17.50
2017-09-25T12:58:37.414Z,17.60
2017-09-25T13:01:04.888Z,17.40
2017-09-25T13:03:32.347Z,17.30
2017-09-25T13:05:59.852Z,17.40
2017-09-25T13:08:27.328Z,17.40
2017-09-25T13:10:55.599Z,17.10
2017-09-25T13:13:23.836Z,16.90
2017-09-25T13:15:51.324Z,16.80
2017-09-25T13:18:19.571Z,17.10
2017-09-25T13:20:47.095Z,17.10
2017-09-25T13:23:14.573Z,17.10
2017-09-25T13:25:42.052Z,17.00
2017-09-25T13:28:09.535Z,16.80
2017-09-25T13:30:37.771Z,17.10
2017-09-25T13:33:05.268Z,17.10
2017-09-25T13:35:33.513Z,17.30
2017-09-25T13:38:00.980Z,17.30
2017-09-25T13:40:28.497Z,17.40
2017-09-25T13:42:56.042Z,17.50
2017-09-25T13:45:23.659Z,17.60
2017-09-25T13:47:51.139Z,17.60
2017-09-25T13:50:19.409Z,17.80
2017-09-25T13:52:46.879Z,17.80
2017-09-25T13:55:15.161Z,17.90
2017-09-25T13:57:43.429Z,17.80
2017-09-25T14:02:44.592Z,17.80
2017-09-25T14:05:12.853Z,17.50
2017-09-25T14:07:40.371Z,17.50
2017-09-25T14:10:07.846Z,17.30
2017-09-25T14:12:35.337Z,17.40
2017-09-25T14:15:02.810Z,17.40
2017-09-25T14:17:31.197Z,17.70
2017-09-25T14:19:58.633Z,17.70
2017-09-25T14:22:26.143Z,17.70
2017-09-25T14:24:53.648Z,17.80
2017-09-25T14:27:21.155Z,17.70
2017-09-25T14:29:48.671Z,17.90
2017-09-25T14:32:16.124Z,17.90
2017-09-25T14:34:43.620Z,17.80
2017-09-25T14:37:11.092Z,17.60
2017-09-25T14:39:38.604Z,17.60
2017-09-25T14:42:06.059Z,17.50
2017-09-25T14:44:33.531Z,17.50
2017-09-25T14:47:01.784Z,17.70
2017-09-25T14:49:29.263Z,17.70
2017-09-25T14:51:57.540Z,17.50
2017-09-25T14:54:25.806Z,17.40
2017-09-25T14:56:53.305Z,17.40
2017-09-25T14:59:20.793Z,17.40
2017-09-25T15:01:48.260Z,17.40
2017-09-25T15:04:15.773Z,17.50
2017-09-25T15:06:43.271Z,17.50
2017-09-25T15:09:10.802Z,17.20
2017-09-25T15:11:38.284Z,17.00
2017-09-25T15:14:05.788Z,17.00
2017-09-25T15:16:34.054Z,17.40
2017-09-25T15:19:01.553Z,17.30
2017-09-25T15:21:29.041Z,17.40
2017-09-25T15:23:56.511Z,17.50
2017-09-25T15:26:24.034Z,17.40
2017-09-25T15:28:51.535Z,17.30
2017-09-25T15:31:19.081Z,17.10
2017-09-25T15:33:47.144Z,17.10
2017-09-25T15:36:14.948Z,16.90
2017-09-25T15:38:43.215Z,16.60
2017-09-25T15:41:10.713Z,16.60
2017-09-25T15:43:38.323Z,16.60
2017-09-25T15:46:05.819Z,16.50
2017-09-25T15:48:34.102Z,16.30
2017-09-25T15:51:02.328Z,16.20
2017-09-25T15:53:29.949Z,16.20
2017-09-25T15:55:57.463Z,16.10
2017-09-25T15:58:24.961Z,16.00
2017-09-25T16:00:54.992Z,15.90
2017-09-25T16:03:22.455Z,15.80
2017-09-25T16:05:50.001Z,15.80
2017-09-25T16:08:17.487Z,15.70
2017-09-25T16:10:45.046Z,15.70
2017-09-25T16:13:12.596Z,15.70
2017-09-25T16:15:40.068Z,15.70
2017-09-25T16:18:07.575Z,15.80
2017-09-25T16:20:35.856Z,15.60
2017-09-25T16:23:04.115Z,15.60
2017-09-25T16:25:31.611Z,15.50
2017-09-25T16:27:59.079Z,15.50
2017-09-25T16:30:26.560Z,15.40
2017-09-25T16:32:54.051Z,15.40
2017-09-25T16:35:21.571Z,15.40
2017-09-25T16:37:49.028Z,15.40
2017-09-25T16:40:16.529Z,15.40
2017-09-25T16:42:44.000Z,15.30
2017-09-25T16:45:12.255Z,15.30
2017-09-25T16:47:39.732Z,15.30
2017-09-25T16:50:08.005Z,15.10
2017-09-25T16:52:35.457Z,15.10
2017-09-25T16:55:02.948Z,15.00
2017-09-25T16:57:30.455Z,14.90
2017-09-25T16:59:57.943Z,14.90
2017-09-25T17:02:26.260Z,14.70
2017-09-25T17:04:53.718Z,14.70
2017-09-25T17:07:21.182Z,14.60
2017-09-25T17:09:48.697Z,14.60
2017-09-25T17:12:16.950Z,14.40
2017-09-25T17:14:44.452Z,14.40
2017-09-25T17:17:12.005Z,14.30
2017-09-25T17:19:39.932Z,14.30
2017-09-25T17:22:07.583Z,14.30
2017-09-25T17:24:35.424Z,14.10
2017-09-25T17:27:03.179Z,14.00
2017-09-25T17:29:30.948Z,14.00
2017-09-25T17:31:58.729Z,13.90
2017-09-25T17:34:26.524Z,13.80
2017-09-25T17:36:55.375Z,13.70
2017-09-25T17:39:23.250Z,13.70
2017-09-25T17:41:52.747Z,13.50
2017-09-25T17:44:20.288Z,13.60
2017-09-25T17:46:48.526Z,13.60
2017-09-25T17:49:16.031Z,13.60
2017-09-25T17:51:43.496Z,13.60
2017-09-25T17:54:10.982Z,13.60
2017-09-25T17:56:38.480Z,13.50
2017-09-25T17:59:06.762Z,13.50
2017-09-25T18:01:35.012Z,13.40
2017-09-25T18:04:02.565Z,13.40
2017-09-25T18:06:30.071Z,13.10
2017-09-25T18:08:57.560Z,13.10
2017-09-25T18:11:25.062Z,13.20
2017-09-25T18:13:52.561Z,12.90
2017-09-25T18:16:20.059Z,12.90
2017-09-25T18:18:47.544Z,13.00
2017-09-25T18:21:15.792Z,13.00
2017-09-25T18:23:43.282Z,13.00
2017-09-25T18:26:10.862Z,13.00
2017-09-25T18:28:39.244Z,12.90
2017-09-25T18:31:08.312Z,13.00
2017-09-25T18:33:36.646Z,12.90
2017-09-25T18:36:04.128Z,12.90
2017-09-25T18:38:31.656Z,12.70
2017-09-25T18:40:59.163Z,12.70
2017-09-25T18:43:26.642Z,12.60
2017-09-25T18:45:55.768Z,12.50
2017-09-25T18:48:23.325Z,12.50
2017-09-25T18:50:50.832Z,12.50
2017-09-25T18:53:18.331Z,12.50
2017-09-25T18:55:45.839Z,12.50
2017-09-25T18:58:13.346Z,12.40
2017-09-25T19:00:41.054Z,12.40
2017-09-25T19:03:08.540Z,12.40
2017-09-25T19:05:36.787Z,12.00
2017-09-25T19:08:04.365Z,12.00
2017-09-25T19:10:32.802Z,12.00
2017-09-25T19:13:00.284Z,12.10
2017-09-25T19:15:27.783Z,12.00
2017-09-25T19:17:56.049Z,12.10
2017-09-25T19:20:23.662Z,12.00
2017-09-25T19:22:51.152Z,12.10
2017-09-25T19:25:18.660Z,11.90
2017-09-25T19:27:46.174Z,11.90
2017-09-25T19:30:13.711Z,11.90
2017-09-25T19:32:41.187Z,12.00
2017-09-25T19:35:08.684Z,11.90
2017-09-25T19:37:36.231Z,11.90
2017-09-25T19:40:03.727Z,11.70
2017-09-25T19:42:31.242Z,11.80
2017-09-25T19:44:58.771Z,11.90
2017-09-25T19:47:26.293Z,11.80
2017-09-25T19:49:55.287Z,11.80
2017-09-25T19:52:22.817Z,11.80
2017-09-25T19:54:56.398Z,11.60
2017-09-25T20:00:29.477Z,11.60
2017-09-25T20:02:56.974Z,11.50
2017-09-25T20:05:25.289Z,11.40
2017-09-25T20:07:53.556Z,11.50
2017-09-25T20:10:26.408Z,11.50
2017-09-25T20:12:53.882Z,11.40
2017-09-25T20:15:27.962Z,11.40
2017-09-25T20:17:55.460Z,11.40
2017-09-25T20:20:22.959Z,11.20
2017-09-25T20:22:50.456Z,11.20
2017-09-25T20:25:17.943Z,11.20
2017-09-25T20:27:45.495Z,11.30
2017-09-25T20:30:13.744Z,11.30
2017-09-25T20:32:41.237Z,11.30
2017-09-25T20:35:09.483Z,11.10
2017-09-25T20:37:37.040Z,11.10
2017-09-25T20:40:04.532Z,10.90
2017-09-25T20:42:38.429Z,11.00
2017-09-25T20:45:05.898Z,11.00
2017-09-25T20:47:34.139Z,11.20
2017-09-25T20:50:02.412Z,11.20
2017-09-25T20:52:29.902Z,11.20
2017-09-25T20:54:58.176Z,11.20
2017-09-25T20:57:25.660Z,11.10
2017-09-25T20:59:53.955Z,11.10
2017-09-25T21:02:21.475Z,11.00
2017-09-25T21:04:49.756Z,11.20
2017-09-25T21:07:17.259Z,11.20
2017-09-25T21:09:44.755Z,11.00
2017-09-25T21:12:12.290Z,11.00
2017-09-25T21:14:39.780Z,11.10
2017-09-25T21:17:07.287Z,11.10
2017-09-25T21:19:34.778Z,11.10
2017-09-25T21:22:02.291Z,11.00
2017-09-25T21:24:29.789Z,11.00
2017-09-25T21:27:16.160Z,10.90
2017-09-25T21:29:43.648Z,10.90
2017-09-25T21:32:11.149Z,11.00
2017-09-25T21:34:39.395Z,10.90
2017-09-25T21:37:06.892Z,10.90
2017-09-25T21:39:35.151Z,10.90
2017-09-25T21:42:02.631Z,10.80
2017-09-25T21:44:30.139Z,11.00
2017-09-25T21:46:57.651Z,11.00
2017-09-25T21:49:25.874Z,11.00
2017-09-25T21:51:53.391Z,11.00
2017-09-25T21:54:20.886Z,11.00
2017-09-25T21:56:48.396Z,10.90
2017-09-25T21:59:16.650Z,10.90
2017-09-25T22:01:44.181Z,10.90
2017-09-25T22:04:11.689Z,10.90
2017-09-25T22:06:39.987Z,10.70
2017-09-25T22:09:07.511Z,10.70
2017-09-25T22:11:35.751Z,10.60
2017-09-25T22:14:03.228Z,10.50
2017-09-25T22:16:30.731Z,10.60
2017-09-25T22:18:58.963Z,10.70
2017-09-25T22:21:26.472Z,10.60
2017-09-25T22:23:53.943Z,10.50
2017-09-25T22:26:21.468Z,10.60
2017-09-25T22:28:49.689Z,10.40
2017-09-25T22:31:17.211Z,10.40
2017-09-25T22:33:45.470Z,10.40
2017-09-25T22:36:12.999Z,10.30
2017-09-25T22:38:40.476Z,10.20
2017-09-25T22:41:07.995Z,10.20
2017-09-25T22:46:40.309Z,9.80
2017-09-25T22:49:07.795Z,9.60
2017-09-25T22:51:35.311Z,9.60
2017-09-25T22:54:02.814Z,9.80
2017-09-25T22:56:30.284Z,10.00
2017-09-25T22:58:58.544Z,10.10
2017-09-25T23:01:26.023Z,10.00
2017-09-25T23:03:56.940Z,10.10
2017-09-25T23:06:24.423Z,10.10
2017-09-25T23:08:52.643Z,10.20
2017-09-25T23:11:20.161Z,10.20
2017-09-25T23:13:48.396Z,10.20
2017-09-25T23:16:15.913Z,10.20
2017-09-25T23:18:43.420Z,10.20
2017-09-25T23:21:10.931Z,10.20
2017-09-25T23:23:38.403Z,10.10
2017-09-25T23:26:05.895Z,10.10
2017-09-25T23:28:33.380Z,10.10
2017-09-25T23:31:01.611Z,9.90
2017-09-25T23:33:29.110Z,9.80
2017-09-25T23:35:56.621Z,9.90
2017-09-25T23:38:24.131Z,9.90
2017-09-25T23:40:51.598Z,9.90
2017-09-25T23:43:19.854Z,9.90
2017-09-25T23:45:47.356Z,9.90
2017-09-25T23:48:14.831Z,9.80
2017-09-25T23:50:42.319Z,9.80
2017-09-25T23:53:09.811Z,9.80
2017-09-25T23:55:38.068Z,9.60
2017-09-25T23:58:05.543Z,9.60
